Flight Track Log - Related Links

Times and Time Zones

All times are in EDT time to prevent confusion due to time zone crossing. See the EJA871 flight status page for this flight to view local times or setup timezone preferences in your user account.

Time Position Orientation Groundspeed Altitude Reporting Facility
EDT Latitude Longitude Course Direction KTS MPH feet Rate Location/Type
Sat 11:46:22 AM 40.2667 -74.8333 270° West 198 228 1,100  Level Philadelphia TRACON
Sat 11:47:28 AM 40.2667 -74.9167 270° West 218 251 3,500 2,762 Climbing Philadelphia TRACON
Sat 11:48:28 AM 40.2333 -75.0000 242° Southwest 243 280 6,900 1,750 Climbing Philadelphia TRACON
Sat 11:49:28 AM 40.2000 -75.0667 237° Southwest 254 292 7,000 263 Climbing Philadelphia TRACON
Sat 11:50:22 AM 40.1667 -75.1500 242° Southwest 252 290 7,400 1,474 Climbing Philadelphia TRACON
Sat 11:51:22 AM 40.1333 -75.2333 242° Southwest 278 320 9,800 1,333 Climbing Philadelphia TRACON
Sat 11:53:49 AM 40.0294 -75.4364 236° Southwest 287 330 12,000 1,298 Climbing New Center
Sat 11:54:50 AM 40.0194 -75.5333 262° West 278 320 14,300 2,803 Climbing New Center
Sat 11:55:51 AM 40.0342 -75.6319 281° West 274 315 17,700 2,672 Climbing New Center
Sat 11:56:49 AM 40.0447 -75.7275 278° West 290 334 19,600 2,085 Climbing New Center
Sat 11:57:49 AM 40.0422 -75.8386 268° West 303 349 21,800 1,180 Climbing New Center
Sat 11:58:51 AM 40.0389 -75.9631 268° West 325 374 22,000 98 Climbing New Center
Sat 11:59:51 AM 40.0331 -76.0928 267° West 348 400 22,000  Level New Center
Sat 12:00:50 PM 40.0269 -76.2278 267° West 354 407 22,000  Level New Center
Sat 12:01:50 PM 40.0256 -76.3444 269° West 338 389 22,000  Level New Center
Sat 12:02:51 PM 40.0247 -76.4472 269° West 313 360 22,000 50 Level New Center
Sat 12:03:51 PM 40.0261 -76.5506 271° West 298 343 22,100  Climbing New Center
Sat 12:04:50 PM 40.0250 -76.6561 269° West 286 329 22,000 -50 Descending New Center
Sat 12:05:51 PM 40.0253 -76.7756 270° West 305 351 22,000  Level New Center
Sat 12:06:51 PM 40.0272 -76.8978 271° West 328 377 22,000  Level New Center
Sat 12:07:49 PM 40.0256 -77.0114 269° West 328 377 22,000  Level New Center
Sat 12:08:49 PM 40.0272 -77.1389 271° West 340 391 22,000  Level New Center
Sat 12:09:50 PM 40.0219 -77.2714 267° West 353 406 22,000  Level New Center
Sat 12:10:50 PM 40.0525 -77.3964 288° West 353 406 22,000 -298 Level New Center
Sat 12:11:51 PM 40.1536 -77.3789 North 264 304 21,400 -1,289 Descending New Center
Sat 12:12:51 PM 40.2069 -77.2833 54° Northeast 243 280 19,400 -1,800 Descending New Center
Sat 12:13:51 PM 40.2000 -77.1439 94° East 294 338 17,800 -1,831 Descending New Center
Sat 12:14:49 PM 40.1853 -76.9878 97° East 363 418 15,800 -1,424 Descending New Center
Sat 12:15:49 PM 40.1742 -76.8425 96° East 395 455 15,000 -393 Descending New Center
Sat 12:16:51 PM 40.1603 -76.7031 97° East 395 455 15,000 -393 Level New Center
Sat 12:17:51 PM 40.1475 -76.5822 98° East 390 449 14,200 -1,119 Descending New Center
Sat 12:18:49 PM 40.1353 -76.4481 97° East 346 398 12,800 -1,373 Descending New Center
Sat 12:19:49 PM 40.1225 -76.3250 98° East 334 384 11,500 -893 Descending New Center
Sat 12:20:50 PM 40.1139 -76.1967 95° East 346 398 11,000 -541 Descending New Center
Sat 12:21:51 PM 40.1058 -76.0956 96° East 334 384 10,400 -908 Descending New Center
Sat 12:22:49 PM 40.0986 -75.9756 94° East 309 356 9,200 -1,059 Descending New Center
Sat 12:23:50 PM 40.0931 -75.8694 94° East 304 350 8,300 -836 Descending New Center
Sat 12:24:51 PM 40.1181 -75.7708 72° East 282 325 7,500 -807 Descending New Center
Sat 12:25:49 PM 40.1389 -75.6717 75° East 276 318 6,700 -814 Descending New Center
Sat 12:26:49 PM 40.1636 -75.5758 71° East 276 318 5,900 -787 Descending New Center
Sat 12:27:51 PM 40.1883 -75.4797 71° East 281 323 5,100 -450 Descending New Center
Sat 12:28:49 PM 40.2172 -75.3811 69° East 281 323 5,000 -50 Descending New Center
Sat 12:29:50 PM 40.2392 -75.2981 71° East 275 316 5,000 -295 Level New Center
Sat 12:30:51 PM 40.2608 -75.2208 70° East 250 288 4,400 -496 Descending New Center
Sat 12:31:51 PM 40.2808 -75.1350 73° East 219 252 4,000 -203 Descending New Center
Sat 12:32:49 PM 40.2922 -75.0539 80° East 219 252 4,000  Level New Center
Sat 12:33:49 PM 40.3011 -74.9811 81° East 219 252 4,000 5,410 Level New Center
Sat 12:34:51 PM 40.3083 -74.8944 84° East 229 264 15,000 -863 Climbing New Center
Sat 12:36:29 PM 40.3500 -74.7833 64° Northeast 194 223 1,700 -5,159 Descending Philadelphia TRACON
Sat 12:37:35 PM 40.3000 -74.7667 166° South 153 176 900 -727 Descending Philadelphia TRACON
Sat 12:39:00 PM 40.2667 -74.8000 217° Southwest  Level FlightAware
Sat 12:46:00 PM 40.2767 -74.8135 217° Southwest  Level Estimated

Login

Don't have an account? Register now (free) for customized features, flight alerts, and more!